Hopkins, South Carolina
Current Conditions -  °F | °C
As of 7:58 PM on Thursday 27 Nov 2014 (Local Time) from KMMT Reporting Station
Clear Clear  
Wind Chill: 36°   Ceiling: Unl
Heat Index: 42°   Visibility: 10mi
Dew Point: 29°   Wind: 12mph
Humidity: 60%   Direction: 330°NNW
Pressure: 30.25"   Gusts: NA
Location:  33.9°N, 80.88°W
Report Text: KMMT 280058Z AUTO 33010KT 10SM CLR 06/M01 A3025 RMK AO2 SLP248 T00581015
Loading
Personal Weather Stations






























Interactive Weather Map New forecast layout! Learn more

10-Day Weather Forecast

Advertisements
Track Severe Weather on mobile